createdAt,value
2018-09-17T00:01:28.410Z,3.10
2018-09-17T00:03:57.249Z,3.33
2018-09-17T00:06:26.241Z,2.83
2018-09-17T00:08:55.177Z,3.00
2018-09-17T00:11:24.167Z,3.10
2018-09-17T00:13:53.317Z,2.77
2018-09-17T00:16:22.261Z,3.00
2018-09-17T00:18:51.171Z,2.97
2018-09-17T00:21:20.185Z,3.03
2018-09-17T00:23:49.112Z,2.77
2018-09-17T00:26:18.115Z,3.10
2018-09-17T00:28:47.027Z,2.83
2018-09-17T00:31:15.903Z,2.87
2018-09-17T00:33:44.774Z,3.10
2018-09-17T00:36:13.729Z,2.60
2018-09-17T00:38:42.696Z,3.10
2018-09-17T00:41:11.589Z,2.90
2018-09-17T00:43:40.640Z,3.00
2018-09-17T00:46:10.584Z,3.13
2018-09-17T00:48:39.445Z,2.90
2018-09-17T00:51:08.332Z,2.80
2018-09-17T00:53:37.190Z,2.70
2018-09-17T00:56:06.292Z,2.63
2018-09-17T00:58:35.242Z,2.67
2018-09-17T01:01:05.165Z,2.60
2018-09-17T01:03:34.036Z,2.90
2018-09-17T01:06:03.121Z,3.00
2018-09-17T01:08:32.039Z,3.20
2018-09-17T01:11:00.972Z,3.17
2018-09-17T01:13:29.927Z,2.77
2018-09-17T01:15:58.804Z,3.10
2018-09-17T01:18:27.674Z,3.37
2018-09-17T01:20:56.641Z,3.07
2018-09-17T01:23:25.535Z,3.30
2018-09-17T01:25:54.437Z,3.37
2018-09-17T01:28:23.453Z,3.30
2018-09-17T01:30:53.393Z,3.43
2018-09-17T01:33:22.270Z,3.70
2018-09-17T01:35:52.170Z,3.00
2018-09-17T01:38:21.081Z,3.07
2018-09-17T01:40:50.042Z,3.30
2018-09-17T01:43:20.122Z,3.20
2018-09-17T01:45:49.021Z,3.80
2018-09-17T01:48:17.898Z,3.00
2018-09-17T01:50:46.860Z,3.77
2018-09-17T01:53:15.775Z,3.73
2018-09-17T01:55:44.645Z,3.57
2018-09-17T01:58:13.530Z,3.60
2018-09-17T02:00:42.517Z,3.50
2018-09-17T02:03:11.411Z,3.63
2018-09-17T02:05:41.330Z,3.67
2018-09-17T02:08:10.239Z,3.90
2018-09-17T02:10:39.141Z,4.10
2018-09-17T02:13:08.073Z,3.77
2018-09-17T02:15:36.907Z,3.47
2018-09-17T02:18:05.764Z,4.23
2018-09-17T02:20:34.691Z,4.00
2018-09-17T02:23:03.592Z,4.00
2018-09-17T02:25:32.559Z,3.73
2018-09-17T02:28:01.411Z,4.30
2018-09-17T02:30:30.313Z,4.10
2018-09-17T02:32:59.271Z,4.20
2018-09-17T02:35:28.206Z,4.50
2018-09-17T02:37:57.138Z,4.27
2018-09-17T02:40:26.016Z,4.17
2018-09-17T02:42:55.004Z,4.40
2018-09-17T02:45:23.873Z,4.40
2018-09-17T02:47:52.845Z,4.20
2018-09-17T02:50:21.813Z,4.20
2018-09-17T02:52:50.786Z,4.77
2018-09-17T02:55:19.725Z,4.20
2018-09-17T02:57:48.658Z,4.47
2018-09-17T03:00:20.249Z,4.80
2018-09-17T03:02:50.858Z,4.87
2018-09-17T03:05:19.786Z,3.93
2018-09-17T03:07:48.732Z,4.70
2018-09-17T03:10:17.792Z,4.60
2018-09-17T03:12:46.674Z,4.50
2018-09-17T03:15:26.760Z,4.53
2018-09-17T03:17:55.662Z,5.17
2018-09-17T03:20:24.611Z,4.40
2018-09-17T03:22:53.470Z,4.57
2018-09-17T03:25:22.439Z,4.73
2018-09-17T03:27:51.381Z,4.77
2018-09-17T03:30:20.613Z,5.17
2018-09-17T03:32:50.565Z,4.50
2018-09-17T03:35:19.456Z,4.80
2018-09-17T03:37:48.350Z,4.70
2018-09-17T03:40:17.277Z,5.30
2018-09-17T03:42:46.310Z,4.40
2018-09-17T03:45:15.258Z,5.10
2018-09-17T03:47:44.216Z,4.87
2018-09-17T03:50:13.173Z,4.87
2018-09-17T03:52:42.022Z,5.10
2018-09-17T03:55:10.893Z,5.07
2018-09-17T03:57:39.880Z,5.03
2018-09-17T04:00:08.872Z,5.27
2018-09-17T04:02:37.825Z,5.50
2018-09-17T04:05:07.107Z,4.80
2018-09-17T04:07:36.101Z,5.43
2018-09-17T04:10:05.193Z,5.30
2018-09-17T04:12:34.212Z,5.20
2018-09-17T04:15:03.205Z,5.73
2018-09-17T04:17:33.108Z,5.20
2018-09-17T04:20:03.036Z,5.70
2018-09-17T04:22:32.037Z,5.17
2018-09-17T04:25:01.034Z,5.70
2018-09-17T04:27:30.029Z,5.47
2018-09-17T04:29:59.072Z,5.70
2018-09-17T04:32:28.011Z,5.53
2018-09-17T04:34:57.031Z,5.67
2018-09-17T04:37:25.983Z,6.27
2018-09-17T04:39:56.001Z,6.33
2018-09-17T04:42:24.915Z,6.43
2018-09-17T04:44:53.897Z,5.90
2018-09-17T04:47:23.847Z,5.70
2018-09-17T04:49:52.937Z,5.97
2018-09-17T04:52:22.018Z,5.77
2018-09-17T04:54:50.968Z,6.07
2018-09-17T04:57:20.974Z,6.70
2018-09-17T04:59:49.932Z,6.60
2018-09-17T05:02:18.887Z,6.77
2018-09-17T05:04:48.085Z,6.23
2018-09-17T05:07:17.129Z,6.53
2018-09-17T05:09:46.102Z,6.20
2018-09-17T05:12:15.065Z,6.30
2018-09-17T05:14:43.932Z,5.90
2018-09-17T05:17:12.891Z,6.23
2018-09-17T05:19:41.950Z,7.10
2018-09-17T05:22:11.003Z,6.20
2018-09-17T05:24:39.949Z,6.37
2018-09-17T05:27:10.020Z,6.33
2018-09-17T05:29:38.917Z,6.03
2018-09-17T05:32:07.825Z,5.83
2018-09-17T05:34:37.758Z,5.73
2018-09-17T05:37:06.755Z,6.37
2018-09-17T05:39:35.773Z,6.00
2018-09-17T05:42:04.718Z,6.27
2018-09-17T05:44:34.728Z,6.77
2018-09-17T05:47:03.651Z,6.30
2018-09-17T05:49:32.640Z,6.80
2018-09-17T05:52:01.603Z,7.17
2018-09-17T05:54:30.540Z,6.27
2018-09-17T05:56:59.532Z,6.70
2018-09-17T05:59:28.586Z,6.47
2018-09-17T06:01:58.508Z,6.67
2018-09-17T06:04:28.452Z,6.47
2018-09-17T06:06:57.427Z,6.90
2018-09-17T06:09:27.251Z,6.50
2018-09-17T06:11:56.301Z,6.60
2018-09-17T06:14:25.237Z,6.60
2018-09-17T06:16:55.298Z,7.73
2018-09-17T06:19:24.274Z,6.80
2018-09-17T06:21:53.209Z,6.67
2018-09-17T06:24:22.097Z,7.23
2018-09-17T06:26:51.202Z,6.97
2018-09-17T06:29:20.462Z,6.73
2018-09-17T06:31:50.403Z,6.57
2018-09-17T06:34:19.340Z,6.63
2018-09-17T06:36:48.314Z,7.10
2018-09-17T06:39:17.207Z,6.73
2018-09-17T06:41:46.119Z,7.60
2018-09-17T06:44:15.107Z,6.93
2018-09-17T06:46:44.613Z,7.33
2018-09-17T06:49:13.831Z,6.90
2018-09-17T06:51:44.033Z,6.47
2018-09-17T06:54:13.016Z,6.90
2018-09-17T06:56:42.033Z,7.03
2018-09-17T06:59:10.996Z,7.00
2018-09-17T07:01:40.967Z,6.50
2018-09-17T07:04:09.905Z,6.87
2018-09-17T07:06:38.812Z,6.73
2018-09-17T07:09:09.733Z,6.47
2018-09-17T07:11:38.893Z,6.23
2018-09-17T07:14:07.898Z,6.77
2018-09-17T07:16:36.834Z,6.93
2018-09-17T07:19:06.159Z,6.43
2018-09-17T07:21:35.141Z,6.40
2018-09-17T07:24:04.142Z,6.27
2018-09-17T07:26:33.136Z,6.53
2018-09-17T07:29:02.349Z,5.87
2018-09-17T07:31:31.620Z,6.13
2018-09-17T07:34:00.945Z,6.40
2018-09-17T07:36:30.149Z,6.57
2018-09-17T07:38:59.092Z,5.83
2018-09-17T07:41:29.052Z,6.10
2018-09-17T07:43:58.000Z,6.47
2018-09-17T07:46:26.937Z,6.57
2018-09-17T07:48:55.910Z,6.30
2018-09-17T07:51:24.807Z,7.00
2018-09-17T07:53:53.738Z,6.47
2018-09-17T07:56:22.636Z,6.23
2018-09-17T07:58:51.611Z,6.93
2018-09-17T08:01:20.822Z,7.37
2018-09-17T08:03:50.044Z,7.30
2018-09-17T08:06:19.954Z,6.57
2018-09-17T08:08:48.900Z,6.57
2018-09-17T08:11:17.858Z,6.40
2018-09-17T08:13:47.856Z,6.43
2018-09-17T08:16:17.751Z,5.47
2018-09-17T08:18:46.715Z,6.23
2018-09-17T08:21:15.659Z,5.87
2018-09-17T08:23:45.578Z,6.30
2018-09-17T08:26:14.678Z,7.10
2018-09-17T08:28:43.659Z,5.60
2018-09-17T08:31:12.801Z,5.93
2018-09-17T08:33:42.032Z,5.87
2018-09-17T08:36:12.011Z,5.47
2018-09-17T08:38:41.001Z,5.60
2018-09-17T08:41:10.111Z,5.73
2018-09-17T08:43:40.108Z,5.57
2018-09-17T08:46:08.990Z,5.63
2018-09-17T08:48:37.987Z,5.47
2018-09-17T08:51:06.953Z,5.67
2018-09-17T08:53:36.855Z,5.50
2018-09-17T08:56:13.043Z,4.90
2018-09-17T08:58:47.320Z,4.80
2018-09-17T09:01:22.783Z,5.83
2018-09-17T09:03:57.925Z,5.17
2018-09-17T09:06:32.229Z,5.03
2018-09-17T09:09:01.275Z,5.03
2018-09-17T09:11:35.601Z,5.73
2018-09-17T09:14:07.520Z,5.30
2018-09-17T09:16:36.474Z,4.87
2018-09-17T09:19:05.433Z,4.60
2018-09-17T09:21:34.407Z,4.80
2018-09-17T09:24:04.333Z,4.83
2018-09-17T09:26:33.299Z,4.23
2018-09-17T09:29:02.338Z,5.00
2018-09-17T09:31:31.295Z,4.70
2018-09-17T09:34:01.239Z,5.07
2018-09-17T09:36:31.109Z,4.83
2018-09-17T09:39:00.075Z,4.80
2018-09-17T09:41:30.029Z,4.63
2018-09-17T09:43:58.904Z,4.00
2018-09-17T09:46:28.363Z,4.00
2018-09-17T09:48:59.250Z,4.23
2018-09-17T09:51:28.168Z,4.00
2018-09-17T09:53:57.177Z,3.97
2018-09-17T09:56:27.446Z,4.30
2018-09-17T09:58:56.435Z,4.50
2018-09-17T10:01:31.426Z,4.40
2018-09-17T10:04:05.691Z,4.17
2018-09-17T10:06:34.723Z,4.10
2018-09-17T10:09:10.723Z,4.10
2018-09-17T10:11:44.912Z,4.43
2018-09-17T10:14:19.312Z,4.70
2018-09-17T10:16:54.722Z,3.70
2018-09-17T10:19:26.121Z,3.83
2018-09-17T10:21:55.990Z,4.10
2018-09-17T10:24:25.354Z,3.60
2018-09-17T10:26:55.710Z,4.13
2018-09-17T10:29:25.907Z,3.60
2018-09-17T10:31:55.920Z,3.40
2018-09-17T10:34:24.955Z,3.90
2018-09-17T10:36:53.847Z,3.40
2018-09-17T10:39:22.795Z,3.20
2018-09-17T10:41:52.684Z,3.40
2018-09-17T10:44:21.663Z,3.57
2018-09-17T10:46:50.631Z,3.40
2018-09-17T10:49:19.556Z,3.30
2018-09-17T10:51:49.444Z,3.40
2018-09-17T10:54:19.379Z,4.13
2018-09-17T10:56:48.723Z,4.03
2018-09-17T10:59:20.390Z,3.70
2018-09-17T11:01:49.847Z,4.10
2018-09-17T11:04:21.208Z,3.70
2018-09-17T11:06:50.564Z,3.90
2018-09-17T11:09:19.502Z,3.97
2018-09-17T11:11:49.064Z,3.60
2018-09-17T11:14:18.367Z,3.63
2018-09-17T11:16:48.709Z,4.33
2018-09-17T11:19:18.076Z,3.23
2018-09-17T11:21:47.434Z,3.70
2018-09-17T11:24:16.460Z,3.23
2018-09-17T11:26:45.531Z,2.97
2018-09-17T11:29:14.526Z,3.17
2018-09-17T11:31:43.491Z,3.10
2018-09-17T11:34:12.513Z,3.10
2018-09-17T11:36:42.424Z,3.27
2018-09-17T11:39:11.642Z,2.77
2018-09-17T11:41:42.647Z,3.03
2018-09-17T11:44:11.612Z,2.80
2018-09-17T11:46:40.519Z,2.80
2018-09-17T11:49:09.429Z,2.47
2018-09-17T11:51:39.408Z,2.70
2018-09-17T11:54:08.363Z,2.67
2018-09-17T11:56:38.370Z,3.37
2018-09-17T11:59:07.381Z,2.97
2018-09-17T12:01:43.589Z,2.90
2018-09-17T12:04:13.949Z,3.00
2018-09-17T12:06:48.125Z,2.80
2018-09-17T12:09:17.986Z,2.80
2018-09-17T12:11:46.992Z,3.20
2018-09-17T12:14:15.988Z,3.33
2018-09-17T12:16:44.920Z,2.93
2018-09-17T12:19:14.841Z,3.27
2018-09-17T12:21:43.873Z,3.10
2018-09-17T12:24:12.787Z,3.13
2018-09-17T12:26:41.668Z,2.37
2018-09-17T12:29:10.574Z,2.90
2018-09-17T12:31:39.410Z,3.20
2018-09-17T12:34:08.395Z,3.30
2018-09-17T12:36:38.492Z,3.10
2018-09-17T12:39:08.650Z,3.20
2018-09-17T12:41:37.672Z,2.97
2018-09-17T12:44:06.591Z,4.03
2018-09-17T12:46:35.535Z,3.50
2018-09-17T12:49:05.498Z,3.17
2018-09-17T12:51:34.382Z,3.27
2018-09-17T12:54:03.288Z,3.17
2018-09-17T12:56:32.201Z,2.87
2018-09-17T12:59:01.247Z,2.90
2018-09-17T13:01:30.151Z,3.10
2018-09-17T13:04:00.144Z,3.30
2018-09-17T13:06:29.126Z,2.90
2018-09-17T13:08:58.012Z,2.80
2018-09-17T13:11:27.888Z,2.60
2018-09-17T13:13:56.889Z,2.90
2018-09-17T13:16:25.863Z,2.80
2018-09-17T13:18:54.746Z,2.60
2018-09-17T13:21:23.672Z,3.00
2018-09-17T13:23:52.532Z,2.70
2018-09-17T13:26:21.448Z,2.90
2018-09-17T13:28:50.380Z,2.63
2018-09-17T13:31:21.355Z,2.73
2018-09-17T13:33:50.268Z,2.73
2018-09-17T13:36:20.256Z,2.77
2018-09-17T13:38:49.168Z,2.50
2018-09-17T13:41:18.153Z,2.90
2018-09-17T13:43:49.109Z,2.67
2018-09-17T13:46:19.019Z,2.73
2018-09-17T13:48:48.943Z,3.00
2018-09-17T13:51:17.840Z,2.43
2018-09-17T13:53:46.759Z,2.13
2018-09-17T13:56:16.686Z,2.60
2018-09-17T13:58:46.624Z,2.77
2018-09-17T14:01:15.557Z,2.90
2018-09-17T14:03:45.536Z,2.37
2018-09-17T14:06:14.442Z,2.50
2018-09-17T14:08:44.363Z,3.40
2018-09-17T14:11:14.315Z,2.97
2018-09-17T14:13:43.312Z,2.60
2018-09-17T14:16:12.316Z,2.50
2018-09-17T14:18:41.255Z,2.70
2018-09-17T14:21:10.342Z,2.80
2018-09-17T14:23:39.276Z,2.83
2018-09-17T14:26:08.306Z,2.70
2018-09-17T14:28:38.206Z,3.00
2018-09-17T14:31:07.385Z,2.73
2018-09-17T14:33:38.512Z,2.90
2018-09-17T14:36:08.735Z,2.90
2018-09-17T14:38:38.702Z,2.60
2018-09-17T14:41:07.638Z,2.60
2018-09-17T14:43:36.740Z,2.87
2018-09-17T14:46:05.955Z,3.10
2018-09-17T14:48:34.861Z,3.00
2018-09-17T14:51:07.704Z,2.97
2018-09-17T14:53:37.888Z,3.00
2018-09-17T14:56:07.747Z,2.80
2018-09-17T14:58:37.677Z,2.97
2018-09-17T15:01:06.680Z,3.00
2018-09-17T15:03:36.522Z,3.80
2018-09-17T15:06:06.643Z,3.93
2018-09-17T15:08:35.595Z,3.43
2018-09-17T15:11:05.525Z,2.80
2018-09-17T15:13:34.374Z,3.30
2018-09-17T15:16:03.425Z,4.03
2018-09-17T15:18:32.356Z,3.57
2018-09-17T15:21:01.234Z,3.27
2018-09-17T15:23:30.130Z,3.50
2018-09-17T15:26:00.080Z,3.43
2018-09-17T15:28:31.056Z,3.10
2018-09-17T15:31:03.909Z,3.50
2018-09-17T15:33:32.977Z,3.03
2018-09-17T15:36:01.887Z,2.80
2018-09-17T15:38:31.056Z,3.17
2018-09-17T15:41:00.098Z,3.30
2018-09-17T15:43:29.965Z,4.03
2018-09-17T15:45:58.874Z,4.10
2018-09-17T15:48:28.795Z,4.23
2018-09-17T15:50:57.758Z,3.60
2018-09-17T15:53:26.913Z,4.63
2018-09-17T15:55:57.098Z,4.90
2018-09-17T15:58:28.474Z,5.57
2018-09-17T16:00:57.547Z,4.03
2018-09-17T16:03:27.903Z,3.30
2018-09-17T16:05:57.918Z,3.50
2018-09-17T16:08:27.789Z,3.50
2018-09-17T16:10:59.411Z,3.13
2018-09-17T16:13:28.866Z,3.80
2018-09-17T16:15:58.507Z,3.43
2018-09-17T16:18:28.295Z,3.17
2018-09-17T16:20:57.700Z,3.83
2018-09-17T16:23:28.112Z,3.47
2018-09-17T16:25:58.645Z,3.13
2018-09-17T16:28:28.193Z,2.90
2018-09-17T16:30:57.774Z,3.70
2018-09-17T16:33:27.427Z,2.97
2018-09-17T16:35:57.006Z,3.07
2018-09-17T16:38:26.783Z,3.37
2018-09-17T16:40:56.021Z,3.90
2018-09-17T16:43:24.904Z,3.57
2018-09-17T16:45:54.006Z,3.47
2018-09-17T16:48:25.056Z,3.43
2018-09-17T16:50:56.150Z,3.10
2018-09-17T16:53:27.507Z,3.30
2018-09-17T16:55:56.782Z,3.57
2018-09-17T16:58:26.302Z,3.60
2018-09-17T17:00:55.603Z,3.30
2018-09-17T17:03:25.069Z,4.13
2018-09-17T17:05:54.757Z,3.73
2018-09-17T17:08:25.267Z,3.53
2018-09-17T17:10:55.394Z,4.13
2018-09-17T17:13:25.376Z,4.40
2018-09-17T17:15:55.414Z,4.33
2018-09-17T17:18:25.335Z,3.90
2018-09-17T17:20:55.349Z,3.97
2018-09-17T17:23:25.457Z,3.87
2018-09-17T17:25:54.342Z,4.13
2018-09-17T17:28:25.465Z,4.77
2018-09-17T17:30:55.396Z,4.30
2018-09-17T17:33:24.440Z,4.17
2018-09-17T17:35:53.572Z,4.40
2018-09-17T17:38:23.506Z,4.30
2018-09-17T17:40:52.534Z,3.60
2018-09-17T17:43:21.413Z,3.60
2018-09-17T17:45:50.509Z,3.73
2018-09-17T17:48:20.512Z,3.93
2018-09-17T17:50:50.668Z,3.97
2018-09-17T17:53:20.490Z,3.77
2018-09-17T17:55:50.070Z,3.87
2018-09-17T17:58:19.798Z,4.17
2018-09-17T18:00:48.876Z,3.57
2018-09-17T18:03:18.797Z,3.50
2018-09-17T18:05:47.754Z,3.77
2018-09-17T18:08:17.635Z,3.63
2018-09-17T18:10:46.576Z,3.97
2018-09-17T18:13:15.585Z,3.63
2018-09-17T18:15:44.921Z,3.40
2018-09-17T18:18:13.925Z,3.40
2018-09-17T18:20:43.021Z,3.30
2018-09-17T18:23:11.949Z,3.20
2018-09-17T18:25:41.860Z,2.93
2018-09-17T18:28:10.876Z,3.00
2018-09-17T18:30:39.813Z,3.23
2018-09-17T18:33:08.712Z,3.13
2018-09-17T18:35:37.641Z,3.27
2018-09-17T18:38:08.552Z,3.23
2018-09-17T18:40:37.551Z,3.30
2018-09-17T18:43:06.597Z,3.17
2018-09-17T18:45:35.549Z,3.33
2018-09-17T18:48:04.521Z,3.30
2018-09-17T18:50:33.428Z,3.17
2018-09-17T18:53:02.382Z,3.10
2018-09-17T18:55:33.407Z,3.20
2018-09-17T18:58:03.380Z,3.40
2018-09-17T19:00:32.410Z,3.20
2018-09-17T19:03:01.399Z,3.57
2018-09-17T19:05:30.313Z,3.60
2018-09-17T19:07:59.253Z,3.37
2018-09-17T19:10:28.249Z,3.47
2018-09-17T19:12:58.159Z,3.67
2018-09-17T19:15:33.535Z,2.80
2018-09-17T19:18:08.844Z,3.23
2018-09-17T19:20:39.973Z,3.33
2018-09-17T19:23:13.987Z,3.67
2018-09-17T19:25:43.123Z,3.60
2018-09-17T19:28:18.208Z,3.20
2018-09-17T19:30:48.202Z,3.20
2018-09-17T19:33:17.133Z,3.70
2018-09-17T19:35:46.540Z,3.50
2018-09-17T19:38:20.677Z,3.57
2018-09-17T19:40:49.715Z,4.13
2018-09-17T19:43:19.634Z,3.97
2018-09-17T19:45:53.813Z,3.97
2018-09-17T19:48:22.678Z,3.47
2018-09-17T19:50:56.874Z,3.83
2018-09-17T19:53:26.019Z,4.10
2018-09-17T19:55:55.400Z,4.40
2018-09-17T19:58:30.163Z,4.20
2018-09-17T20:00:59.669Z,3.83
2018-09-17T20:03:28.955Z,4.00
2018-09-17T20:06:05.091Z,4.27
2018-09-17T20:08:35.224Z,3.70
2018-09-17T20:11:04.178Z,3.83
2018-09-17T20:13:34.122Z,3.93
2018-09-17T20:16:03.085Z,3.77
2018-09-17T20:18:32.721Z,3.30
2018-09-17T20:21:02.642Z,3.40
2018-09-17T20:23:31.607Z,3.70
2018-09-17T20:26:00.625Z,3.60
2018-09-17T20:28:30.605Z,3.60
2018-09-17T20:30:59.528Z,4.20
2018-09-17T20:33:30.930Z,3.93
2018-09-17T20:35:59.919Z,3.67
2018-09-17T20:38:29.059Z,4.23
2018-09-17T20:40:59.062Z,3.57
2018-09-17T20:43:28.038Z,3.70
2018-09-17T20:45:57.228Z,3.87
2018-09-17T20:48:26.148Z,3.93
2018-09-17T20:50:55.024Z,3.87
2018-09-17T20:53:23.910Z,4.03
2018-09-17T20:55:52.801Z,4.20
2018-09-17T20:58:22.737Z,3.93
2018-09-17T21:00:52.710Z,3.83
2018-09-17T21:03:23.586Z,3.80
2018-09-17T21:05:52.577Z,3.70
2018-09-17T21:08:22.659Z,4.33
2018-09-17T21:10:51.531Z,4.00
2018-09-17T21:13:20.529Z,3.60
2018-09-17T21:15:49.734Z,3.87
2018-09-17T21:18:18.846Z,3.80
2018-09-17T21:20:47.801Z,3.77
2018-09-17T21:23:16.787Z,3.47
2018-09-17T21:25:45.718Z,3.83
2018-09-17T21:28:14.686Z,3.40
2018-09-17T21:30:44.755Z,3.90
2018-09-17T21:33:13.769Z,3.80
2018-09-17T21:35:44.686Z,3.70
2018-09-17T21:38:13.631Z,3.50
2018-09-17T21:40:43.768Z,3.63
2018-09-17T21:43:13.724Z,3.50
2018-09-17T21:45:42.698Z,3.40
2018-09-17T21:48:11.570Z,3.27
2018-09-17T21:50:40.521Z,3.30
2018-09-17T21:53:09.419Z,3.50
2018-09-17T21:55:39.425Z,3.80
2018-09-17T21:58:09.772Z,3.97
2018-09-17T22:00:43.929Z,3.80
2018-09-17T22:03:13.130Z,3.73
2018-09-17T22:05:42.001Z,3.73
2018-09-17T22:08:10.980Z,3.97
2018-09-17T22:10:39.937Z,3.63
2018-09-17T22:13:08.949Z,4.17
2018-09-17T22:15:37.925Z,3.43
2018-09-17T22:18:06.881Z,3.80
2018-09-17T22:20:36.822Z,3.60
2018-09-17T22:23:05.762Z,3.77
2018-09-17T22:25:34.889Z,3.40
2018-09-17T22:28:04.053Z,3.33
2018-09-17T22:30:33.034Z,3.63
2018-09-17T22:33:03.039Z,3.70
2018-09-17T22:35:32.119Z,3.70
2018-09-17T22:38:01.145Z,3.57
2018-09-17T22:40:30.092Z,3.60
2018-09-17T22:42:58.985Z,3.57
2018-09-17T22:45:27.968Z,3.70
2018-09-17T22:47:57.856Z,3.73
2018-09-17T22:50:27.858Z,3.57
2018-09-17T22:52:56.956Z,4.30
2018-09-17T22:55:25.941Z,3.60
2018-09-17T22:57:55.812Z,4.07
2018-09-17T23:00:24.732Z,3.60
2018-09-17T23:02:53.629Z,4.17
2018-09-17T23:05:22.556Z,3.30
2018-09-17T23:07:51.467Z,4.07
2018-09-17T23:10:20.342Z,3.60
2018-09-17T23:12:49.243Z,4.30
2018-09-17T23:15:18.160Z,3.63
2018-09-17T23:17:47.016Z,3.83
2018-09-17T23:20:16.091Z,3.47
2018-09-17T23:22:45.013Z,3.60
2018-09-17T23:25:14.489Z,4.00
2018-09-17T23:27:43.719Z,4.40
2018-09-17T23:30:14.060Z,4.17
2018-09-17T23:32:44.415Z,3.70
2018-09-17T23:35:13.604Z,3.87
2018-09-17T23:37:42.606Z,4.03
2018-09-17T23:40:11.559Z,4.10
2018-09-17T23:42:40.887Z,4.30
2018-09-17T23:45:11.279Z,3.90
2018-09-17T23:47:40.690Z,4.07
2018-09-17T23:50:10.055Z,3.80
2018-09-17T23:52:40.251Z,4.03
2018-09-17T23:55:09.650Z,4.10
2018-09-17T23:57:39.712Z,4.40
